sensor_id;sensor_type;location;lat;lon;timestamp;temperature;humidity
37412;DHT22;23278;52.110;6.050;2023-05-21T00:01:02;15.70;73.40
37412;DHT22;23278;52.110;6.050;2023-05-21T00:03:30;15.70;73.20
37412;DHT22;23278;52.110;6.050;2023-05-21T00:05:56;15.70;73.20
37412;DHT22;23278;52.110;6.050;2023-05-21T00:08:23;15.80;73.50
37412;DHT22;23278;52.110;6.050;2023-05-21T00:10:48;15.90;73.50
37412;DHT22;23278;52.110;6.050;2023-05-21T00:13:15;15.90;73.40
37412;DHT22;23278;52.110;6.050;2023-05-21T00:15:41;15.90;73.80
37412;DHT22;23278;52.110;6.050;2023-05-21T00:18:07;16.00;73.70
37412;DHT22;23278;52.110;6.050;2023-05-21T00:20:33;16.00;73.90
37412;DHT22;23278;52.110;6.050;2023-05-21T00:22:59;16.00;74.10
37412;DHT22;23278;52.110;6.050;2023-05-21T00:25:27;16.00;74.10
37412;DHT22;23278;52.110;6.050;2023-05-21T00:27:56;16.10;74.10
37412;DHT22;23278;52.110;6.050;2023-05-21T00:30:22;16.10;75.00
37412;DHT22;23278;52.110;6.050;2023-05-21T00:32:48;16.10;74.70
37412;DHT22;23278;52.110;6.050;2023-05-21T00:35:15;16.10;74.90
37412;DHT22;23278;52.110;6.050;2023-05-21T00:37:41;16.00;75.20
37412;DHT22;23278;52.110;6.050;2023-05-21T00:40:07;16.00;75.60
37412;DHT22;23278;52.110;6.050;2023-05-21T00:42:34;15.90;75.70
37412;DHT22;23278;52.110;6.050;2023-05-21T00:45:05;16.00;76.20
37412;DHT22;23278;52.110;6.050;2023-05-21T00:47:32;16.00;76.50
37412;DHT22;23278;52.110;6.050;2023-05-21T00:49:59;16.00;76.60
37412;DHT22;23278;52.110;6.050;2023-05-21T00:52:26;15.90;77.00
37412;DHT22;23278;52.110;6.050;2023-05-21T00:54:52;15.90;77.70
37412;DHT22;23278;52.110;6.050;2023-05-21T00:57:19;15.80;78.00
37412;DHT22;23278;52.110;6.050;2023-05-21T00:59:48;15.80;78.10
37412;DHT22;23278;52.110;6.050;2023-05-21T01:02:15;15.80;78.20
37412;DHT22;23278;52.110;6.050;2023-05-21T01:04:46;15.80;78.40
37412;DHT22;23278;52.110;6.050;2023-05-21T01:07:12;15.80;78.80
37412;DHT22;23278;52.110;6.050;2023-05-21T01:09:40;15.80;79.40
37412;DHT22;23278;52.110;6.050;2023-05-21T01:12:07;15.80;79.20
37412;DHT22;23278;52.110;6.050;2023-05-21T01:14:35;15.70;79.30
37412;DHT22;23278;52.110;6.050;2023-05-21T01:17:04;15.60;79.60
37412;DHT22;23278;52.110;6.050;2023-05-21T01:19:31;15.60;80.40
37412;DHT22;23278;52.110;6.050;2023-05-21T01:22:03;15.50;81.00
37412;DHT22;23278;52.110;6.050;2023-05-21T01:24:29;15.50;81.40
37412;DHT22;23278;52.110;6.050;2023-05-21T01:26:57;15.50;81.50
37412;DHT22;23278;52.110;6.050;2023-05-21T01:29:23;15.50;81.80
37412;DHT22;23278;52.110;6.050;2023-05-21T01:34:45;15.50;82.40
37412;DHT22;23278;52.110;6.050;2023-05-21T01:37:29;15.60;82.40
37412;DHT22;23278;52.110;6.050;2023-05-21T01:40:01;15.60;82.70
37412;DHT22;23278;52.110;6.050;2023-05-21T01:42:29;15.60;83.10
37412;DHT22;23278;52.110;6.050;2023-05-21T01:44:58;15.60;83.40
37412;DHT22;23278;52.110;6.050;2023-05-21T01:47:26;15.70;83.70
37412;DHT22;23278;52.110;6.050;2023-05-21T01:49:54;15.70;83.80
37412;DHT22;23278;52.110;6.050;2023-05-21T01:52:21;15.70;84.00
37412;DHT22;23278;52.110;6.050;2023-05-21T01:54:47;15.70;84.10
37412;DHT22;23278;52.110;6.050;2023-05-21T01:57:15;15.70;84.30
37412;DHT22;23278;52.110;6.050;2023-05-21T01:59:41;15.80;84.30
37412;DHT22;23278;52.110;6.050;2023-05-21T02:02:09;15.80;84.30
37412;DHT22;23278;52.110;6.050;2023-05-21T02:04:34;15.80;84.70
37412;DHT22;23278;52.110;6.050;2023-05-21T02:07:02;15.80;84.60
37412;DHT22;23278;52.110;6.050;2023-05-21T02:09:28;15.80;84.70
37412;DHT22;23278;52.110;6.050;2023-05-21T02:11:54;15.90;84.90
37412;DHT22;23278;52.110;6.050;2023-05-21T02:14:20;15.90;85.10
37412;DHT22;23278;52.110;6.050;2023-05-21T02:16:46;15.90;85.40
37412;DHT22;23278;52.110;6.050;2023-05-21T02:19:12;15.90;85.60
37412;DHT22;23278;52.110;6.050;2023-05-21T02:21:38;15.90;85.80
37412;DHT22;23278;52.110;6.050;2023-05-21T02:24:04;15.90;85.80
37412;DHT22;23278;52.110;6.050;2023-05-21T02:26:30;15.90;86.00
37412;DHT22;23278;52.110;6.050;2023-05-21T02:28:56;15.90;86.30
37412;DHT22;23278;52.110;6.050;2023-05-21T02:31:22;15.90;86.30
37412;DHT22;23278;52.110;6.050;2023-05-21T02:33:48;15.90;86.70
37412;DHT22;23278;52.110;6.050;2023-05-21T02:36:14;15.90;86.90
37412;DHT22;23278;52.110;6.050;2023-05-21T02:38:43;15.90;87.10
37412;DHT22;23278;52.110;6.050;2023-05-21T02:41:13;15.90;87.50
37412;DHT22;23278;52.110;6.050;2023-05-21T02:43:39;15.90;87.60
37412;DHT22;23278;52.110;6.050;2023-05-21T02:46:05;15.90;87.80
37412;DHT22;23278;52.110;6.050;2023-05-21T02:48:32;15.90;87.80
37412;DHT22;23278;52.110;6.050;2023-05-21T02:50:58;15.90;88.10
37412;DHT22;23278;52.110;6.050;2023-05-21T02:53:24;15.80;88.20
37412;DHT22;23278;52.110;6.050;2023-05-21T02:55:50;15.80;88.20
37412;DHT22;23278;52.110;6.050;2023-05-21T02:58:16;15.80;88.50
37412;DHT22;23278;52.110;6.050;2023-05-21T03:00:43;15.80;88.50
37412;DHT22;23278;52.110;6.050;2023-05-21T03:03:09;15.80;88.90
37412;DHT22;23278;52.110;6.050;2023-05-21T03:05:36;15.80;89.10
37412;DHT22;23278;52.110;6.050;2023-05-21T03:08:02;15.70;89.20
37412;DHT22;23278;52.110;6.050;2023-05-21T03:10:28;15.70;89.60
37412;DHT22;23278;52.110;6.050;2023-05-21T03:12:54;15.70;90.00
37412;DHT22;23278;52.110;6.050;2023-05-21T03:15:21;15.70;90.00
37412;DHT22;23278;52.110;6.050;2023-05-21T03:17:51;15.70;90.20
37412;DHT22;23278;52.110;6.050;2023-05-21T03:20:18;15.60;90.20
37412;DHT22;23278;52.110;6.050;2023-05-21T03:22:45;15.60;90.20
37412;DHT22;23278;52.110;6.050;2023-05-21T03:25:11;15.60;90.30
37412;DHT22;23278;52.110;6.050;2023-05-21T03:27:38;15.60;90.50
37412;DHT22;23278;52.110;6.050;2023-05-21T03:30:09;15.60;90.60
37412;DHT22;23278;52.110;6.050;2023-05-21T03:32:47;15.60;90.70
37412;DHT22;23278;52.110;6.050;2023-05-21T03:35:14;15.50;90.80
37412;DHT22;23278;52.110;6.050;2023-05-21T03:37:40;15.50;90.90
37412;DHT22;23278;52.110;6.050;2023-05-21T03:40:07;15.50;91.10
37412;DHT22;23278;52.110;6.050;2023-05-21T03:42:33;15.40;91.30
37412;DHT22;23278;52.110;6.050;2023-05-21T03:44:59;15.40;91.30
37412;DHT22;23278;52.110;6.050;2023-05-21T03:47:43;15.40;91.50
37412;DHT22;23278;52.110;6.050;2023-05-21T03:50:10;15.40;91.60
37412;DHT22;23278;52.110;6.050;2023-05-21T03:52:37;15.50;91.70
37412;DHT22;23278;52.110;6.050;2023-05-21T03:55:03;15.40;91.90
37412;DHT22;23278;52.110;6.050;2023-05-21T03:57:29;15.40;92.10
37412;DHT22;23278;52.110;6.050;2023-05-21T03:59:55;15.40;92.20
37412;DHT22;23278;52.110;6.050;2023-05-21T04:02:27;15.40;92.40
37412;DHT22;23278;52.110;6.050;2023-05-21T04:04:53;15.30;92.50
37412;DHT22;23278;52.110;6.050;2023-05-21T04:07:20;15.40;92.80
37412;DHT22;23278;52.110;6.050;2023-05-21T04:09:47;15.30;92.80
37412;DHT22;23278;52.110;6.050;2023-05-21T04:12:13;15.30;93.10
37412;DHT22;23278;52.110;6.050;2023-05-21T04:14:39;15.20;93.20
37412;DHT22;23278;52.110;6.050;2023-05-21T04:17:05;15.10;93.40
37412;DHT22;23278;52.110;6.050;2023-05-21T04:19:32;15.10;93.60
37412;DHT22;23278;52.110;6.050;2023-05-21T04:21:58;15.10;94.00
37412;DHT22;23278;52.110;6.050;2023-05-21T04:24:24;15.00;94.10
37412;DHT22;23278;52.110;6.050;2023-05-21T04:27:00;15.00;94.30
37412;DHT22;23278;52.110;6.050;2023-05-21T04:29:27;15.00;94.40
37412;DHT22;23278;52.110;6.050;2023-05-21T04:31:54;15.00;94.50
37412;DHT22;23278;52.110;6.050;2023-05-21T04:34:21;15.00;94.80
37412;DHT22;23278;52.110;6.050;2023-05-21T04:36:47;15.00;94.80
37412;DHT22;23278;52.110;6.050;2023-05-21T04:39:13;15.10;94.90
37412;DHT22;23278;52.110;6.050;2023-05-21T04:41:40;15.10;95.10
37412;DHT22;23278;52.110;6.050;2023-05-21T04:44:24;15.10;95.40
37412;DHT22;23278;52.110;6.050;2023-05-21T04:46:50;15.10;95.50
37412;DHT22;23278;52.110;6.050;2023-05-21T04:49:17;15.20;95.70
37412;DHT22;23278;52.110;6.050;2023-05-21T04:51:43;15.20;95.60
37412;DHT22;23278;52.110;6.050;2023-05-21T04:54:09;15.20;95.60
37412;DHT22;23278;52.110;6.050;2023-05-21T04:56:35;15.30;95.60
37412;DHT22;23278;52.110;6.050;2023-05-21T04:59:01;15.40;95.60
37412;DHT22;23278;52.110;6.050;2023-05-21T05:01:28;15.40;95.50
37412;DHT22;23278;52.110;6.050;2023-05-21T05:03:57;15.50;95.50
37412;DHT22;23278;52.110;6.050;2023-05-21T05:06:23;15.50;95.50
37412;DHT22;23278;52.110;6.050;2023-05-21T05:08:50;15.60;95.50
37412;DHT22;23278;52.110;6.050;2023-05-21T05:11:16;15.60;95.70
37412;DHT22;23278;52.110;6.050;2023-05-21T05:13:44;15.60;95.60
37412;DHT22;23278;52.110;6.050;2023-05-21T05:16:10;15.60;95.60
37412;DHT22;23278;52.110;6.050;2023-05-21T05:18:37;15.70;95.70
37412;DHT22;23278;52.110;6.050;2023-05-21T05:21:03;15.70;95.70
37412;DHT22;23278;52.110;6.050;2023-05-21T05:23:29;15.70;95.80
37412;DHT22;23278;52.110;6.050;2023-05-21T05:25:55;15.80;95.80
37412;DHT22;23278;52.110;6.050;2023-05-21T05:28:21;15.80;95.80
37412;DHT22;23278;52.110;6.050;2023-05-21T05:30:48;15.90;95.70
37412;DHT22;23278;52.110;6.050;2023-05-21T05:33:22;16.00;95.60
37412;DHT22;23278;52.110;6.050;2023-05-21T05:35:48;16.10;95.70
37412;DHT22;23278;52.110;6.050;2023-05-21T05:38:14;16.10;95.60
37412;DHT22;23278;52.110;6.050;2023-05-21T05:40:42;16.20;95.50
37412;DHT22;23278;52.110;6.050;2023-05-21T05:43:08;16.30;95.60
37412;DHT22;23278;52.110;6.050;2023-05-21T05:45:34;16.30;95.60
37412;DHT22;23278;52.110;6.050;2023-05-21T05:48:01;16.30;95.50
37412;DHT22;23278;52.110;6.050;2023-05-21T05:50:27;16.30;95.50
37412;DHT22;23278;52.110;6.050;2023-05-21T05:52:53;16.40;95.40
37412;DHT22;23278;52.110;6.050;2023-05-21T05:55:20;16.50;95.30
37412;DHT22;23278;52.110;6.050;2023-05-21T05:57:46;16.60;95.20
37412;DHT22;23278;52.110;6.050;2023-05-21T06:00:14;16.60;95.10
37412;DHT22;23278;52.110;6.050;2023-05-21T06:02:46;16.60;95.10
37412;DHT22;23278;52.110;6.050;2023-05-21T06:05:14;16.60;95.10
37412;DHT22;23278;52.110;6.050;2023-05-21T06:07:41;16.60;95.10
37412;DHT22;23278;52.110;6.050;2023-05-21T06:10:08;16.60;95.20
37412;DHT22;23278;52.110;6.050;2023-05-21T06:12:34;16.50;95.20
37412;DHT22;23278;52.110;6.050;2023-05-21T06:15:01;16.60;95.10
37412;DHT22;23278;52.110;6.050;2023-05-21T06:17:27;16.70;95.00
37412;DHT22;23278;52.110;6.050;2023-05-21T06:19:53;16.80;94.90
37412;DHT22;23278;52.110;6.050;2023-05-21T06:22:19;16.90;94.80
37412;DHT22;23278;52.110;6.050;2023-05-21T06:24:46;16.90;94.70
37412;DHT22;23278;52.110;6.050;2023-05-21T06:27:14;16.90;94.70
37412;DHT22;23278;52.110;6.050;2023-05-21T06:29:40;16.90;94.60
37412;DHT22;23278;52.110;6.050;2023-05-21T06:32:07;17.00;94.50
37412;DHT22;23278;52.110;6.050;2023-05-21T06:34:34;17.10;94.30
37412;DHT22;23278;52.110;6.050;2023-05-21T06:36:59;17.10;94.20
37412;DHT22;23278;52.110;6.050;2023-05-21T06:39:26;17.20;94.20
37412;DHT22;23278;52.110;6.050;2023-05-21T06:41:52;17.30;94.10
37412;DHT22;23278;52.110;6.050;2023-05-21T06:44:37;17.40;94.00
37412;DHT22;23278;52.110;6.050;2023-05-21T06:47:10;17.50;93.70
37412;DHT22;23278;52.110;6.050;2023-05-21T06:49:39;17.60;93.50
37412;DHT22;23278;52.110;6.050;2023-05-21T06:52:05;17.80;93.30
37412;DHT22;23278;52.110;6.050;2023-05-21T06:54:31;17.90;93.10
37412;DHT22;23278;52.110;6.050;2023-05-21T06:56:58;18.00;92.80
37412;DHT22;23278;52.110;6.050;2023-05-21T06:59:24;18.10;92.70
37412;DHT22;23278;52.110;6.050;2023-05-21T07:01:50;18.20;92.40
37412;DHT22;23278;52.110;6.050;2023-05-21T07:04:16;18.30;92.30
37412;DHT22;23278;52.110;6.050;2023-05-21T07:06:43;18.40;92.00
37412;DHT22;23278;52.110;6.050;2023-05-21T07:09:09;18.50;91.60
37412;DHT22;23278;52.110;6.050;2023-05-21T07:11:36;18.60;91.20
37412;DHT22;23278;52.110;6.050;2023-05-21T07:14:03;18.70;91.00
37412;DHT22;23278;52.110;6.050;2023-05-21T07:16:34;18.80;90.80
37412;DHT22;23278;52.110;6.050;2023-05-21T07:19:01;18.90;90.50
37412;DHT22;23278;52.110;6.050;2023-05-21T07:21:27;19.00;90.30
37412;DHT22;23278;52.110;6.050;2023-05-21T07:23:53;19.20;90.00
37412;DHT22;23278;52.110;6.050;2023-05-21T07:26:19;19.50;88.80
37412;DHT22;23278;52.110;6.050;2023-05-21T07:28:46;19.70;88.00
37412;DHT22;23278;52.110;6.050;2023-05-21T07:31:12;19.90;86.60
37412;DHT22;23278;52.110;6.050;2023-05-21T07:33:41;20.00;86.30
37412;DHT22;23278;52.110;6.050;2023-05-21T07:36:10;20.10;85.70
37412;DHT22;23278;52.110;6.050;2023-05-21T07:38:35;20.10;85.60
37412;DHT22;23278;52.110;6.050;2023-05-21T07:41:03;20.20;85.20
37412;DHT22;23278;52.110;6.050;2023-05-21T07:43:30;20.20;84.90
37412;DHT22;23278;52.110;6.050;2023-05-21T07:45:56;20.00;84.40
37412;DHT22;23278;52.110;6.050;2023-05-21T07:48:22;19.90;84.80
37412;DHT22;23278;52.110;6.050;2023-05-21T07:50:53;19.80;85.40
37412;DHT22;23278;52.110;6.050;2023-05-21T07:53:21;19.90;85.60
37412;DHT22;23278;52.110;6.050;2023-05-21T07:55:48;19.90;85.60
37412;DHT22;23278;52.110;6.050;2023-05-21T07:58:17;20.00;85.10
37412;DHT22;23278;52.110;6.050;2023-05-21T08:00:46;20.00;85.10
37412;DHT22;23278;52.110;6.050;2023-05-21T08:03:16;20.20;84.80
37412;DHT22;23278;52.110;6.050;2023-05-21T08:05:43;20.30;84.20
37412;DHT22;23278;52.110;6.050;2023-05-21T08:08:17;20.30;83.80
37412;DHT22;23278;52.110;6.050;2023-05-21T08:10:45;20.40;83.70
37412;DHT22;23278;52.110;6.050;2023-05-21T08:13:13;20.50;83.20
37412;DHT22;23278;52.110;6.050;2023-05-21T08:15:39;20.60;83.00
37412;DHT22;23278;52.110;6.050;2023-05-21T08:18:06;20.80;82.20
37412;DHT22;23278;52.110;6.050;2023-05-21T08:20:34;20.80;81.70
37412;DHT22;23278;52.110;6.050;2023-05-21T08:23:00;20.90;81.00
37412;DHT22;23278;52.110;6.050;2023-05-21T08:25:29;20.80;81.00
37412;DHT22;23278;52.110;6.050;2023-05-21T08:27:56;20.80;81.00
37412;DHT22;23278;52.110;6.050;2023-05-21T08:30:22;20.90;81.00
37412;DHT22;23278;52.110;6.050;2023-05-21T08:32:48;21.10;80.50
37412;DHT22;23278;52.110;6.050;2023-05-21T08:35:17;21.20;79.60
37412;DHT22;23278;52.110;6.050;2023-05-21T08:38:01;21.40;79.10
37412;DHT22;23278;52.110;6.050;2023-05-21T08:40:35;21.50;78.80
37412;DHT22;23278;52.110;6.050;2023-05-21T08:43:01;21.70;78.40
37412;DHT22;23278;52.110;6.050;2023-05-21T08:45:44;21.70;77.60
37412;DHT22;23278;52.110;6.050;2023-05-21T08:48:10;21.80;77.40
37412;DHT22;23278;52.110;6.050;2023-05-21T08:50:39;22.00;76.80
37412;DHT22;23278;52.110;6.050;2023-05-21T08:53:21;22.20;76.20
37412;DHT22;23278;52.110;6.050;2023-05-21T08:55:50;22.50;75.30
37412;DHT22;23278;52.110;6.050;2023-05-21T08:58:18;22.70;74.60
37412;DHT22;23278;52.110;6.050;2023-05-21T09:00:44;22.90;73.70
37412;DHT22;23278;52.110;6.050;2023-05-21T09:03:12;22.90;73.40
37412;DHT22;23278;52.110;6.050;2023-05-21T09:05:42;23.00;72.80
37412;DHT22;23278;52.110;6.050;2023-05-21T09:10:49;23.10;72.40
37412;DHT22;23278;52.110;6.050;2023-05-21T09:13:17;23.10;72.10
37412;DHT22;23278;52.110;6.050;2023-05-21T09:15:45;23.40;71.50
37412;DHT22;23278;52.110;6.050;2023-05-21T09:18:13;23.50;70.70
37412;DHT22;23278;52.110;6.050;2023-05-21T09:20:46;23.80;70.40
37412;DHT22;23278;52.110;6.050;2023-05-21T09:23:16;24.00;69.80
37412;DHT22;23278;52.110;6.050;2023-05-21T09:25:47;24.20;69.10
37412;DHT22;23278;52.110;6.050;2023-05-21T09:28:21;24.60;68.70
37412;DHT22;23278;52.110;6.050;2023-05-21T09:30:50;25.00;67.60
37412;DHT22;23278;52.110;6.050;2023-05-21T09:33:24;25.40;66.40
37412;DHT22;23278;52.110;6.050;2023-05-21T09:35:51;25.70;64.90
37412;DHT22;23278;52.110;6.050;2023-05-21T09:38:17;25.80;64.00
37412;DHT22;23278;52.110;6.050;2023-05-21T09:40:46;26.20;63.10
37412;DHT22;23278;52.110;6.050;2023-05-21T09:43:13;26.60;62.40
37412;DHT22;23278;52.110;6.050;2023-05-21T09:48:17;26.90;59.30
37412;DHT22;23278;52.110;6.050;2023-05-21T09:51:10;27.10;59.20
37412;DHT22;23278;52.110;6.050;2023-05-21T09:56:13;27.90;56.30
37412;DHT22;23278;52.110;6.050;2023-05-21T09:58:39;28.10;55.80
37412;DHT22;23278;52.110;6.050;2023-05-21T10:01:06;28.30;54.90
37412;DHT22;23278;52.110;6.050;2023-05-21T10:03:37;28.50;53.90
37412;DHT22;23278;52.110;6.050;2023-05-21T10:06:06;28.80;53.40
37412;DHT22;23278;52.110;6.050;2023-05-21T10:08:34;29.50;52.70
37412;DHT22;23278;52.110;6.050;2023-05-21T10:11:05;29.70;51.40
37412;DHT22;23278;52.110;6.050;2023-05-21T10:13:33;30.00;51.00
37412;DHT22;23278;52.110;6.050;2023-05-21T10:16:03;30.40;50.60
37412;DHT22;23278;52.110;6.050;2023-05-21T10:18:31;30.80;49.50
37412;DHT22;23278;52.110;6.050;2023-05-21T10:20:58;30.90;48.00
37412;DHT22;23278;52.110;6.050;2023-05-21T10:23:26;31.00;47.90
37412;DHT22;23278;52.110;6.050;2023-05-21T10:25:54;31.40;47.00
37412;DHT22;23278;52.110;6.050;2023-05-21T10:28:21;31.20;46.90
37412;DHT22;23278;52.110;6.050;2023-05-21T10:30:48;31.00;47.00
37412;DHT22;23278;52.110;6.050;2023-05-21T10:33:15;31.50;46.10
37412;DHT22;23278;52.110;6.050;2023-05-21T10:35:41;32.10;45.80
37412;DHT22;23278;52.110;6.050;2023-05-21T10:38:10;32.90;44.60
37412;DHT22;23278;52.110;6.050;2023-05-21T10:40:39;33.60;43.80
37412;DHT22;23278;52.110;6.050;2023-05-21T10:43:20;33.80;42.80
37412;DHT22;23278;52.110;6.050;2023-05-21T10:48:49;34.50;42.20
37412;DHT22;23278;52.110;6.050;2023-05-21T11:00:19;35.00;40.60
37412;DHT22;23278;52.110;6.050;2023-05-21T11:02:47;35.10;40.70
37412;DHT22;23278;52.110;6.050;2023-05-21T11:05:13;35.60;40.50
37412;DHT22;23278;52.110;6.050;2023-05-21T11:08:17;36.30;40.10
37412;DHT22;23278;52.110;6.050;2023-05-21T11:10:56;37.00;39.40
37412;DHT22;23278;52.110;6.050;2023-05-21T11:13:24;37.10;38.80
37412;DHT22;23278;52.110;6.050;2023-05-21T11:21:18;39.10;38.00
37412;DHT22;23278;52.110;6.050;2023-05-21T11:23:55;39.60;37.00
37412;DHT22;23278;52.110;6.050;2023-05-21T11:26:24;40.10;36.40
37412;DHT22;23278;52.110;6.050;2023-05-21T11:31:30;41.50;35.60
37412;DHT22;23278;52.110;6.050;2023-05-21T11:34:19;42.00;34.80
37412;DHT22;23278;52.110;6.050;2023-05-21T11:39:49;42.30;34.80
37412;DHT22;23278;52.110;6.050;2023-05-21T11:42:41;42.20;34.40
37412;DHT22;23278;52.110;6.050;2023-05-21T11:45:09;42.00;34.30
37412;DHT22;23278;52.110;6.050;2023-05-21T11:47:35;42.00;34.40
37412;DHT22;23278;52.110;6.050;2023-05-21T11:50:02;42.10;34.30
37412;DHT22;23278;52.110;6.050;2023-05-21T11:52:30;42.40;34.00
37412;DHT22;23278;52.110;6.050;2023-05-21T11:54:56;42.50;34.10
37412;DHT22;23278;52.110;6.050;2023-05-21T11:57:26;41.80;34.40
37412;DHT22;23278;52.110;6.050;2023-05-21T11:59:55;41.10;34.50
37412;DHT22;23278;52.110;6.050;2023-05-21T12:02:25;41.20;34.40
37412;DHT22;23278;52.110;6.050;2023-05-21T12:04:52;41.80;34.20
37412;DHT22;23278;52.110;6.050;2023-05-21T12:07:19;42.70;34.20
37412;DHT22;23278;52.110;6.050;2023-05-21T12:09:46;43.60;33.10
37412;DHT22;23278;52.110;6.050;2023-05-21T12:12:20;44.10;32.80
37412;DHT22;23278;52.110;6.050;2023-05-21T12:14:51;44.40;32.70
37412;DHT22;23278;52.110;6.050;2023-05-21T12:17:19;44.50;32.50
37412;DHT22;23278;52.110;6.050;2023-05-21T12:19:47;44.40;32.10
37412;DHT22;23278;52.110;6.050;2023-05-21T12:22:13;44.30;32.30
37412;DHT22;23278;52.110;6.050;2023-05-21T12:24:43;44.30;32.50
37412;DHT22;23278;52.110;6.050;2023-05-21T12:27:10;45.00;32.50
37412;DHT22;23278;52.110;6.050;2023-05-21T12:29:40;45.50;32.20
37412;DHT22;23278;52.110;6.050;2023-05-21T12:32:08;45.50;31.80
37412;DHT22;23278;52.110;6.050;2023-05-21T12:37:20;45.10;32.00
37412;DHT22;23278;52.110;6.050;2023-05-21T12:39:49;44.90;31.80
37412;DHT22;23278;52.110;6.050;2023-05-21T12:42:15;44.90;31.70
37412;DHT22;23278;52.110;6.050;2023-05-21T12:44:46;45.30;31.80
37412;DHT22;23278;52.110;6.050;2023-05-21T12:47:12;45.40;31.90
37412;DHT22;23278;52.110;6.050;2023-05-21T12:49:40;45.90;31.70
37412;DHT22;23278;52.110;6.050;2023-05-21T12:52:10;46.00;31.50
37412;DHT22;23278;52.110;6.050;2023-05-21T12:54:38;45.90;31.50
37412;DHT22;23278;52.110;6.050;2023-05-21T12:57:15;45.70;31.40
37412;DHT22;23278;52.110;6.050;2023-05-21T12:59:51;45.40;31.70
37412;DHT22;23278;52.110;6.050;2023-05-21T13:02:26;45.20;31.70
37412;DHT22;23278;52.110;6.050;2023-05-21T13:04:56;45.60;31.80
37412;DHT22;23278;52.110;6.050;2023-05-21T13:07:23;45.60;31.40
37412;DHT22;23278;52.110;6.050;2023-05-21T13:09:49;45.40;31.50
37412;DHT22;23278;52.110;6.050;2023-05-21T13:12:19;45.40;31.60
37412;DHT22;23278;52.110;6.050;2023-05-21T13:14:45;45.60;31.60
37412;DHT22;23278;52.110;6.050;2023-05-21T13:17:11;45.90;31.20
37412;DHT22;23278;52.110;6.050;2023-05-21T13:19:37;46.00;31.30
37412;DHT22;23278;52.110;6.050;2023-05-21T13:22:04;45.70;31.30
37412;DHT22;23278;52.110;6.050;2023-05-21T13:24:32;45.40;31.80
37412;DHT22;23278;52.110;6.050;2023-05-21T13:26:58;45.20;31.90
37412;DHT22;23278;52.110;6.050;2023-05-21T13:29:24;44.60;31.90
37412;DHT22;23278;52.110;6.050;2023-05-21T13:31:50;44.10;32.30
37412;DHT22;23278;52.110;6.050;2023-05-21T13:34:16;44.10;32.50
37412;DHT22;23278;52.110;6.050;2023-05-21T13:36:42;43.70;32.40
37412;DHT22;23278;52.110;6.050;2023-05-21T13:39:08;42.70;32.70
37412;DHT22;23278;52.110;6.050;2023-05-21T13:41:33;42.00;33.30
37412;DHT22;23278;52.110;6.050;2023-05-21T13:43:59;42.30;33.20
37412;DHT22;23278;52.110;6.050;2023-05-21T13:46:26;43.70;32.40
37412;DHT22;23278;52.110;6.050;2023-05-21T13:48:51;44.70;31.90
37412;DHT22;23278;52.110;6.050;2023-05-21T13:51:17;45.40;31.90
37412;DHT22;23278;52.110;6.050;2023-05-21T13:53:43;46.10;31.50
37412;DHT22;23278;52.110;6.050;2023-05-21T13:56:09;46.20;31.40
37412;DHT22;23278;52.110;6.050;2023-05-21T13:58:35;45.80;31.60
37412;DHT22;23278;52.110;6.050;2023-05-21T14:01:03;45.30;32.20
37412;DHT22;23278;52.110;6.050;2023-05-21T14:03:29;44.70;31.90
37412;DHT22;23278;52.110;6.050;2023-05-21T14:05:56;44.00;32.20
37412;DHT22;23278;52.110;6.050;2023-05-21T14:08:23;44.20;32.30
37412;DHT22;23278;52.110;6.050;2023-05-21T14:10:50;44.60;32.30
37412;DHT22;23278;52.110;6.050;2023-05-21T14:13:16;45.10;31.80
37412;DHT22;23278;52.110;6.050;2023-05-21T14:15:42;45.60;31.50
37412;DHT22;23278;52.110;6.050;2023-05-21T14:18:08;45.80;31.40
37412;DHT22;23278;52.110;6.050;2023-05-21T14:20:39;46.10;31.50
37412;DHT22;23278;52.110;6.050;2023-05-21T14:23:05;46.40;31.40
37412;DHT22;23278;52.110;6.050;2023-05-21T14:25:31;46.50;31.40
37412;DHT22;23278;52.110;6.050;2023-05-21T14:27:57;46.50;31.30
37412;DHT22;23278;52.110;6.050;2023-05-21T14:30:23;46.70;31.30
37412;DHT22;23278;52.110;6.050;2023-05-21T14:32:49;47.20;31.10
37412;DHT22;23278;52.110;6.050;2023-05-21T14:35:15;47.40;30.90
37412;DHT22;23278;52.110;6.050;2023-05-21T14:37:44;47.00;30.90
37412;DHT22;23278;52.110;6.050;2023-05-21T14:40:10;46.80;31.20
37412;DHT22;23278;52.110;6.050;2023-05-21T14:42:36;46.70;31.10
37412;DHT22;23278;52.110;6.050;2023-05-21T14:45:02;46.30;31.40
37412;DHT22;23278;52.110;6.050;2023-05-21T14:47:29;46.30;31.40
37412;DHT22;23278;52.110;6.050;2023-05-21T14:49:55;46.20;31.50
37412;DHT22;23278;52.110;6.050;2023-05-21T14:52:21;45.70;32.00
37412;DHT22;23278;52.110;6.050;2023-05-21T14:54:47;44.90;32.40
37412;DHT22;23278;52.110;6.050;2023-05-21T14:57:13;43.20;33.10
37412;DHT22;23278;52.110;6.050;2023-05-21T14:59:39;42.80;33.50
37412;DHT22;23278;52.110;6.050;2023-05-21T15:02:05;42.90;33.10
37412;DHT22;23278;52.110;6.050;2023-05-21T15:04:31;43.20;32.90
37412;DHT22;23278;52.110;6.050;2023-05-21T15:06:57;43.80;32.60
37412;DHT22;23278;52.110;6.050;2023-05-21T15:09:23;44.00;32.40
37412;DHT22;23278;52.110;6.050;2023-05-21T15:11:49;44.60;32.10
37412;DHT22;23278;52.110;6.050;2023-05-21T15:14:18;45.00;32.00
37412;DHT22;23278;52.110;6.050;2023-05-21T15:16:44;45.10;31.80
37412;DHT22;23278;52.110;6.050;2023-05-21T15:19:10;45.30;31.80
37412;DHT22;23278;52.110;6.050;2023-05-21T15:21:36;45.10;31.90
37412;DHT22;23278;52.110;6.050;2023-05-21T15:24:03;45.00;32.10
37412;DHT22;23278;52.110;6.050;2023-05-21T15:26:29;44.80;32.10
37412;DHT22;23278;52.110;6.050;2023-05-21T15:28:55;44.20;32.20
37412;DHT22;23278;52.110;6.050;2023-05-21T15:31:21;43.70;32.60
37412;DHT22;23278;52.110;6.050;2023-05-21T15:33:50;43.90;32.40
37412;DHT22;23278;52.110;6.050;2023-05-21T15:36:16;44.00;32.30
37412;DHT22;23278;52.110;6.050;2023-05-21T15:38:42;44.00;32.20
37412;DHT22;23278;52.110;6.050;2023-05-21T15:41:08;43.90;32.30
37412;DHT22;23278;52.110;6.050;2023-05-21T15:43:34;43.50;32.40
37412;DHT22;23278;52.110;6.050;2023-05-21T15:46:00;42.90;32.80
37412;DHT22;23278;52.110;6.050;2023-05-21T15:48:26;42.50;33.00
37412;DHT22;23278;52.110;6.050;2023-05-21T15:50:52;42.40;33.00
37412;DHT22;23278;52.110;6.050;2023-05-21T15:53:19;42.60;33.00
37412;DHT22;23278;52.110;6.050;2023-05-21T15:55:45;42.90;33.00
37412;DHT22;23278;52.110;6.050;2023-05-21T15:58:11;42.80;32.70
37412;DHT22;23278;52.110;6.050;2023-05-21T16:00:37;42.20;33.00
37412;DHT22;23278;52.110;6.050;2023-05-21T16:03:03;42.00;33.20
37412;DHT22;23278;52.110;6.050;2023-05-21T16:05:29;42.10;33.20
37412;DHT22;23278;52.110;6.050;2023-05-21T16:07:55;42.10;33.30
37412;DHT22;23278;52.110;6.050;2023-05-21T16:10:21;42.10;33.30